Time;durP1;ratioP1;P1;durP2;ratioP2;P2;SDS_P1;SDS_P2;PMS_P1;PMS_P2;Temp;Humidity;BMP_temperature;BMP_pressure;BME280_temperature;BME280_humidity;BME280_pressure;Samples;Min_cycle;Max_cycle;Signal;HPM_P1;HPM_P2
2020/04/10 00:00:17;;;;;;;10.9;8.799999;;;;;;;7.77;61.14355;95795.23;;;;
2020/04/10 00:02:45;;;;;;;10.05;8.950001;;;;;;;7.75;61.27832;95796.49;;;;
2020/04/10 00:04:18;;;;;;;10.25;8.799999;;;;;;;7.73;61.46777;95793.17;;;;
2020/04/10 00:06:07;;;;;;;11;8.75;;;;;;;7.71;61.61426;95792.55;;;;
2020/04/10 00:07:11;;;;;;;11;8.75;;;;;;;7.71;61.61426;95792.55;;;;
2020/04/10 00:08:16;;;;;;;11;8.75;;;;;;;7.71;61.61426;95792.55;;;;
2020/04/10 00:09:20;;;;;;;9.749999;8.849999;;;;;;;7.69;61.66699;95794.53;;;;
2020/04/10 00:11:04;;;;;;;9.749999;8.849999;;;;;;;7.69;61.66699;95794.53;;;;
2020/04/10 00:12:37;;;;;;;9.6;8.6;;;;;;;7.67;61.86523;95793.06;;;;
2020/04/10 00:13:41;;;;;;;9.6;8.6;;;;;;;7.67;61.86523;95793.06;;;;
2020/04/10 00:14:49;;;;;;;9.749999;8.749998;;;;;;;7.65;61.88281;95786.64;;;;
2020/04/10 00:15:59;;;;;;;9.749999;8.749998;;;;;;;7.65;61.88281;95786.64;;;;
2020/04/10 00:17:15;;;;;;;10.45;9;;;;;;;7.63;61.9668;95787.78;;;;
2020/04/10 00:18:24;;;;;;;10.45;9;;;;;;;7.63;61.9668;95787.78;;;;
2020/04/10 00:19:38;;;;;;;9.95;8.95;;;;;;;7.61;62.04785;95793.48;;;;
2020/04/10 00:20:44;;;;;;;9.95;8.95;;;;;;;7.61;62.04785;95793.48;;;;
2020/04/10 00:21:48;;;;;;;9.95;8.95;;;;;;;7.61;62.04785;95793.48;;;;
2020/04/10 00:22:57;;;;;;;10.2;9.15;;;;;;;7.58;62.15039;95791.61;;;;
2020/04/10 00:24:16;;;;;;;10.2;9.15;;;;;;;7.58;62.15039;95791.61;;;;
2020/04/10 00:25:52;;;;;;;10.2;9.15;;;;;;;7.58;62.15039;95791.61;;;;
2020/04/10 00:26:58;;;;;;;10.2;9.15;;;;;;;7.58;62.15039;95791.61;;;;
2020/04/10 00:28:02;;;;;;;10.2;9.15;;;;;;;7.58;62.15039;95791.61;;;;
2020/04/10 00:29:10;;;;;;;10.2;9.15;;;;;;;7.58;62.15039;95791.61;;;;
2020/04/10 00:30:15;;;;;;;10.2;9.15;;;;;;;7.58;62.15039;95791.61;;;;
2020/04/10 00:32:35;;;;;;;9.199999;8.200001;;;;;;;7.15;60.82031;95784.91;;;;
2020/04/10 00:33:56;;;;;;;9.199999;8.200001;;;;;;;7.15;60.82031;95784.91;;;;
2020/04/10 00:35:18;;;;;;;10.25;8.9;;;;;;;7.11;61.49805;95785.83;;;;
2020/04/10 00:36:33;;;;;;;10.25;8.9;;;;;;;7.11;61.49805;95785.83;;;;
2020/04/10 00:37:55;;;;;;;10.05;8.900001;;;;;;;7.13;61.91699;95785.11;;;;
2020/04/10 00:39:10;;;;;;;10.05;8.900001;;;;;;;7.13;61.91699;95785.11;;;;
2020/04/10 00:40:48;;;;;;;15.5;9.049999;;;;;;;7.15;62.24902;95779.96;;;;
2020/04/10 00:42:22;;;;;;;15.5;9.049999;;;;;;;7.15;62.24902;95779.96;;;;
2020/04/10 00:43:30;;;;;;;13.1;9.6;;;;;;;7.18;62.54102;95785.86;;;;
2020/04/10 00:44:39;;;;;;;13.1;9.6;;;;;;;7.18;62.54102;95785.86;;;;
2020/04/10 00:45:42;;;;;;;13.1;9.6;;;;;;;7.18;62.54102;95785.86;;;;
2020/04/10 00:47:09;;;;;;;10.35;9.249998;;;;;;;7.19;62.8623;95776.76;;;;
2020/04/10 00:48:46;;;;;;;10.35;9.249998;;;;;;;7.19;62.8623;95776.76;;;;
2020/04/10 00:49:52;;;;;;;10.35;9.249998;;;;;;;7.19;62.8623;95776.76;;;;
2020/04/10 00:50:52;;;;;;;10.35;9.249998;;;;;;;7.19;62.8623;95776.76;;;;
2020/04/10 00:51:58;;;;;;;10.35;9.249998;;;;;;;7.19;62.8623;95776.76;;;;
2020/04/10 00:53:40;;;;;;;10.35;9.249998;;;;;;;7.19;62.8623;95776.76;;;;
2020/04/10 00:54:53;;;;;;;10.35;9.249998;;;;;;;7.19;62.8623;95776.76;;;;
2020/04/10 00:55:57;;;;;;;10.35;9.249998;;;;;;;7.19;62.8623;95776.76;;;;
2020/04/10 00:56:57;;;;;;;10.55;9.15;;;;;;;6.91;61.46973;95777.8;;;;
2020/04/10 00:58:07;;;;;;;10.55;9.15;;;;;;;6.91;61.46973;95777.8;;;;
2020/04/10 00:59:12;;;;;;;11.5;9.5;;;;;;;6.91;62.25781;95775.53;;;;
2020/04/10 01:00:54;;;;;;;11.5;9.5;;;;;;;6.91;62.25781;95775.53;;;;
2020/04/10 01:02:54;;;;;;;11.8;9.749998;;;;;;;6.97;62.72461;95774.33;;;;
2020/04/10 01:08:16;;;;;;;10.65;9.549999;;;;;;;7.05;63.42871;95764.76;;;;
2020/04/10 01:09:55;;;;;;;11.1;10;;;;;;;7.09;63.63672;95773.11;;;;
2020/04/10 01:11:46;;;;;;;11.1;10;;;;;;;7.09;63.63672;95773.11;;;;
2020/04/10 01:12:53;;;;;;;11.1;10;;;;;;;7.09;63.63672;95773.11;;;;
2020/04/10 01:14:04;;;;;;;11.1;10;;;;;;;7.09;63.63672;95773.11;;;;
2020/04/10 01:15:13;;;;;;;11.1;10;;;;;;;7.09;63.63672;95773.11;;;;
2020/04/10 01:16:27;;;;;;;11.1;10;;;;;;;7.09;63.63672;95773.11;;;;
2020/04/10 01:17:54;;;;;;;11.1;10;;;;;;;7.09;63.63672;95773.11;;;;
2020/04/10 01:23:33;;;;;;;11.1;9.65;;;;;;;6.86;62.91113;95770.78;;;;
2020/04/10 01:24:42;;;;;;;11.1;9.65;;;;;;;6.86;62.91113;95770.78;;;;
2020/04/10 01:25:51;;;;;;;13.35;10.05;;;;;;;6.91;63.47168;95772.85;;;;
2020/04/10 01:27:04;;;;;;;13.35;10.05;;;;;;;6.91;63.47168;95772.85;;;;
2020/04/10 01:32:24;;;;;;;14.05;10.25;;;;;;;6.96;63.94727;95772.27;;;;
2020/04/10 01:34:13;;;;;;;14.05;10.25;;;;;;;6.96;63.94727;95772.27;;;;
2020/04/10 01:35:19;;;;;;;14.05;10.25;;;;;;;6.96;63.94727;95772.27;;;;
2020/04/10 01:36:26;;;;;;;14.05;10.25;;;;;;;6.96;63.94727;95772.27;;;;
2020/04/10 01:37:42;;;;;;;14.05;10.25;;;;;;;6.96;63.94727;95772.27;;;;
2020/04/10 01:38:46;;;;;;;10.9;9.350001;;;;;;;6.65;62.65527;95772.34;;;;
2020/04/10 01:39:53;;;;;;;10.9;9.350001;;;;;;;6.65;62.65527;95772.34;;;;
2020/04/10 01:41:41;;;;;;;10.75;9.65;;;;;;;6.62;63.52441;95769.95;;;;
2020/04/10 01:42:51;;;;;;;10.75;9.65;;;;;;;6.62;63.52441;95769.95;;;;
2020/04/10 01:44:12;;;;;;;10.75;9.65;;;;;;;6.62;63.52441;95769.95;;;;
2020/04/10 01:45:16;;;;;;;10.75;9.65;;;;;;;6.62;63.52441;95769.95;;;;
2020/04/10 01:46:36;;;;;;;10.75;9.65;;;;;;;6.62;63.52441;95769.95;;;;
2020/04/10 01:47:50;;;;;;;10.75;9.65;;;;;;;6.62;63.52441;95769.95;;;;
2020/04/10 01:48:51;;;;;;;10.75;9.65;;;;;;;6.62;63.52441;95769.95;;;;
2020/04/10 01:50:12;;;;;;;10.75;9.65;;;;;;;6.62;63.52441;95769.95;;;;
2020/04/10 01:51:45;;;;;;;10.75;9.65;;;;;;;6.62;63.52441;95769.95;;;;
2020/04/10 01:53:29;;;;;;;11.8;9.5;;;;;;;6.4;62.70508;95776.97;;;;
2020/04/10 01:54:45;;;;;;;12;9.7;;;;;;;6.39;63.68262;95774.8;;;;
2020/04/10 01:56:07;;;;;;;12;9.7;;;;;;;6.39;63.68262;95774.8;;;;
2020/04/10 01:57:21;;;;;;;12;9.7;;;;;;;6.39;63.68262;95774.8;;;;
2020/04/10 01:58:36;;;;;;;12;9.7;;;;;;;6.39;63.68262;95774.8;;;;
2020/04/10 01:59:38;;;;;;;12;9.7;;;;;;;6.39;63.68262;95774.8;;;;
2020/04/10 02:00:46;;;;;;;12;9.7;;;;;;;6.39;63.68262;95774.8;;;;
2020/04/10 02:02:51;;;;;;;12;9.7;;;;;;;6.39;63.68262;95774.8;;;;
2020/04/10 02:04:38;;;;;;;12;9.7;;;;;;;6.39;63.68262;95774.8;;;;
2020/04/10 02:11:05;;;;;;;11.25;10.05;;;;;;;6.29;64.74219;95773.41;;;;
2020/04/10 02:12:41;;;;;;;11.25;10.05;;;;;;;6.29;64.74219;95773.41;;;;
2020/04/10 02:14:09;;;;;;;11.55;10.35;;;;;;;6.35;65.33398;95776.2;;;;
2020/04/10 02:15:18;;;;;;;11.55;10.35;;;;;;;6.35;65.33398;95776.2;;;;
2020/04/10 02:16:35;;;;;;;12.25;10.5;;;;;;;6.4;65.75684;95775.12;;;;
2020/04/10 02:20:06;;;;;;;13.35;11.1;;;;;;;6.44;66.13281;95771.53;;;;
2020/04/10 02:21:33;;;;;;;13.35;11.1;;;;;;;6.44;66.13281;95771.53;;;;
2020/04/10 02:22:44;;;;;;;13.35;11.1;;;;;;;6.44;66.13281;95771.53;;;;
2020/04/10 02:23:46;;;;;;;13.35;11.1;;;;;;;6.44;66.13281;95771.53;;;;
2020/04/10 02:25:34;;;;;;;13.35;11.1;;;;;;;6.44;66.13281;95771.53;;;;
2020/04/10 02:26:38;;;;;;;13.35;11.1;;;;;;;6.44;66.13281;95771.53;;;;
2020/04/10 02:27:42;;;;;;;13.35;11.1;;;;;;;6.44;66.13281;95771.53;;;;
2020/04/10 02:29:15;;;;;;;12;10.15;;;;;;;6.14;64.66504;95767.41;;;;
2020/04/10 02:30:25;;;;;;;12;10.15;;;;;;;6.14;64.66504;95767.41;;;;
2020/04/10 02:34:33;;;;;;;12.05;10.85;;;;;;;6.17;66.0498;95766.51;;;;
2020/04/10 02:35:58;;;;;;;12.05;10.85;;;;;;;6.17;66.0498;95766.51;;;;
2020/04/10 02:37:07;;;;;;;12.85;10.75;;;;;;;6.21;66.56543;95762.41;;;;
2020/04/10 02:38:10;;;;;;;12.85;10.75;;;;;;;6.21;66.56543;95762.41;;;;
2020/04/10 02:39:11;;;;;;;12.85;10.75;;;;;;;6.21;66.56543;95762.41;;;;
2020/04/10 02:40:35;;;;;;;12.85;10.75;;;;;;;6.21;66.56543;95762.41;;;;
2020/04/10 02:42:34;;;;;;;12.85;10.75;;;;;;;6.21;66.56543;95762.41;;;;
2020/04/10 02:43:35;;;;;;;12.85;10.75;;;;;;;6.21;66.56543;95762.41;;;;
2020/04/10 02:44:40;;;;;;;12.85;10.75;;;;;;;6.21;66.56543;95762.41;;;;
2020/04/10 02:45:42;;;;;;;12.85;10.75;;;;;;;6.21;66.56543;95762.41;;;;
2020/04/10 02:47:08;;;;;;;12.85;10.75;;;;;;;6.21;66.56543;95762.41;;;;
2020/04/10 02:48:25;;;;;;;12.35;10.4;;;;;;;5.94;65.16602;95765.94;;;;
2020/04/10 02:49:34;;;;;;;12.35;10.4;;;;;;;5.94;65.16602;95765.94;;;;
2020/04/10 02:50:36;;;;;;;11.5;9.9;;;;;;;5.93;66.01367;95761.21;;;;
2020/04/10 02:51:41;;;;;;;11.5;9.9;;;;;;;5.93;66.01367;95761.21;;;;
2020/04/10 02:53:10;;;;;;;11.5;9.9;;;;;;;5.93;66.01367;95761.21;;;;
2020/04/10 02:54:19;;;;;;;11.5;9.9;;;;;;;5.93;66.01367;95761.21;;;;
2020/04/10 02:55:27;;;;;;;11.5;9.9;;;;;;;5.93;66.01367;95761.21;;;;
2020/04/10 02:56:30;;;;;;;11.5;9.9;;;;;;;5.93;66.01367;95761.21;;;;
2020/04/10 02:57:37;;;;;;;11.5;9.9;;;;;;;5.93;66.01367;95761.21;;;;
2020/04/10 02:58:42;;;;;;;11.5;9.9;;;;;;;5.93;66.01367;95761.21;;;;
2020/04/10 02:59:49;;;;;;;11.5;9.9;;;;;;;5.93;66.01367;95761.21;;;;
2020/04/10 03:00:50;;;;;;;11.95;9.950001;;;;;;;5.72;65.01563;95762.57;;;;
2020/04/10 03:01:55;;;;;;;11.95;9.950001;;;;;;;5.72;65.01563;95762.57;;;;
2020/04/10 03:02:58;;;;;;;11.95;9.950001;;;;;;;5.72;65.01563;95762.57;;;;
2020/04/10 03:04:08;;;;;;;13;10.85;;;;;;;5.72;65.98242;95766.05;;;;
2020/04/10 03:05:20;;;;;;;13;10.85;;;;;;;5.72;65.98242;95766.05;;;;
2020/04/10 03:06:20;;;;;;;13;10.85;;;;;;;5.72;65.98242;95766.05;;;;
2020/04/10 03:07:36;;;;;;;13;10.85;;;;;;;5.72;65.98242;95766.05;;;;
2020/04/10 03:08:46;;;;;;;13;10.85;;;;;;;5.72;65.98242;95766.05;;;;
2020/04/10 03:09:51;;;;;;;13;10.85;;;;;;;5.72;65.98242;95766.05;;;;
2020/04/10 03:10:59;;;;;;;13;10.85;;;;;;;5.72;65.98242;95766.05;;;;
2020/04/10 03:12:00;;;;;;;13;10.85;;;;;;;5.72;65.98242;95766.05;;;;
2020/04/10 03:13:07;;;;;;;13;10.85;;;;;;;5.72;65.98242;95766.05;;;;
2020/04/10 03:14:13;;;;;;;11.6;10.25;;;;;;;5.54;65.25391;95776.95;;;;
2020/04/10 03:15:39;;;;;;;11.6;10.25;;;;;;;5.54;65.25391;95776.95;;;;
2020/04/10 03:17:50;;;;;;;11.85;10.65;;;;;;;5.56;66.23145;95771.28;;;;
2020/04/10 03:19:02;;;;;;;11.85;10.65;;;;;;;5.56;66.23145;95771.28;;;;
2020/04/10 03:20:17;;;;;;;11.85;10.65;;;;;;;5.56;66.23145;95771.28;;;;
2020/04/10 03:21:20;;;;;;;11.85;10.65;;;;;;;5.56;66.23145;95771.28;;;;
2020/04/10 03:22:24;;;;;;;11.85;10.65;;;;;;;5.56;66.23145;95771.28;;;;
2020/04/10 03:23:25;;;;;;;11.85;10.65;;;;;;;5.56;66.23145;95771.28;;;;
2020/04/10 03:24:31;;;;;;;11.85;10.65;;;;;;;5.56;66.23145;95771.28;;;;
2020/04/10 03:25:35;;;;;;;11.85;10.65;;;;;;;5.56;66.23145;95771.28;;;;
2020/04/10 03:26:35;;;;;;;11.85;10.65;;;;;;;5.56;66.23145;95771.28;;;;
2020/04/10 03:27:36;;;;;;;12.65;10.25;;;;;;;5.42;65.44727;95784.23;;;;
2020/04/10 03:28:38;;;;;;;12.65;10.25;;;;;;;5.42;65.44727;95784.23;;;;
2020/04/10 03:29:40;;;;;;;12.65;10.25;;;;;;;5.42;65.44727;95784.23;;;;
2020/04/10 03:30:41;;;;;;;11.9;10.45;;;;;;;5.42;66.42383;95781.06;;;;
2020/04/10 03:31:43;;;;;;;11.9;10.45;;;;;;;5.42;66.42383;95781.06;;;;
2020/04/10 03:32:44;;;;;;;11.9;10.45;;;;;;;5.42;66.42383;95781.06;;;;
2020/04/10 03:33:50;;;;;;;11.9;10.45;;;;;;;5.42;66.42383;95781.06;;;;
2020/04/10 03:34:51;;;;;;;11.9;10.45;;;;;;;5.42;66.42383;95781.06;;;;
2020/04/10 03:35:58;;;;;;;11.9;10.45;;;;;;;5.42;66.42383;95781.06;;;;
2020/04/10 03:36:58;;;;;;;11.9;10.45;;;;;;;5.42;66.42383;95781.06;;;;
2020/04/10 03:38:06;;;;;;;11.9;10.45;;;;;;;5.42;66.42383;95781.06;;;;
2020/04/10 03:39:10;;;;;;;11.9;10.45;;;;;;;5.42;66.42383;95781.06;;;;
2020/04/10 03:41:19;;;;;;;11.85;10.65;;;;;;;5.26;65.63574;95776.37;;;;
2020/04/10 03:42:38;;;;;;;11.85;10.65;;;;;;;5.26;65.63574;95776.37;;;;
2020/04/10 03:43:46;;;;;;;12.4;11.1;;;;;;;5.28;66.67578;95777.11;;;;
2020/04/10 03:45:06;;;;;;;12.4;11.1;;;;;;;5.28;66.67578;95777.11;;;;
2020/04/10 03:46:42;;;;;;;12.4;11.1;;;;;;;5.28;66.67578;95777.11;;;;
2020/04/10 03:47:45;;;;;;;12.4;11.1;;;;;;;5.28;66.67578;95777.11;;;;
2020/04/10 03:48:45;;;;;;;12.4;11.1;;;;;;;5.28;66.67578;95777.11;;;;
2020/04/10 03:49:51;;;;;;;12.4;11.1;;;;;;;5.28;66.67578;95777.11;;;;
2020/04/10 03:50:53;;;;;;;12.4;11.1;;;;;;;5.28;66.67578;95777.11;;;;
2020/04/10 03:51:53;;;;;;;12.4;11.1;;;;;;;5.28;66.67578;95777.11;;;;
2020/04/10 03:52:54;;;;;;;12.4;11.1;;;;;;;5.28;66.67578;95777.11;;;;
2020/04/10 03:53:54;;;;;;;12.4;10.3;;;;;;;5.14;65.94531;95777.92;;;;
2020/04/10 03:54:57;;;;;;;12.4;10.3;;;;;;;5.14;65.94531;95777.92;;;;
2020/04/10 03:55:58;;;;;;;12.4;10.3;;;;;;;5.14;65.94531;95777.92;;;;
2020/04/10 03:56:58;;;;;;;12.2;10.9;;;;;;;5.16;66.98633;95776.39;;;;
2020/04/10 03:58:05;;;;;;;12.2;10.9;;;;;;;5.16;66.98633;95776.39;;;;
2020/04/10 03:59:05;;;;;;;12.2;10.9;;;;;;;5.16;66.98633;95776.39;;;;
2020/04/10 04:00:07;;;;;;;12.2;10.9;;;;;;;5.16;66.98633;95776.39;;;;
2020/04/10 04:01:14;;;;;;;12.2;10.9;;;;;;;5.16;66.98633;95776.39;;;;
2020/04/10 04:02:41;;;;;;;12.2;10.9;;;;;;;5.16;66.98633;95776.39;;;;
2020/04/10 04:03:48;;;;;;;12.2;10.9;;;;;;;5.16;66.98633;95776.39;;;;
2020/04/10 04:04:49;;;;;;;12.2;10.9;;;;;;;5.16;66.98633;95776.39;;;;
2020/04/10 04:05:49;;;;;;;12.2;10.9;;;;;;;5.16;66.98633;95776.39;;;;
2020/04/10 04:06:50;;;;;;;11.55;10.35;;;;;;;5.02;66.29785;95777.23;;;;
2020/04/10 04:07:51;;;;;;;11.55;10.35;;;;;;;5.02;66.29785;95777.23;;;;
2020/04/10 04:08:53;;;;;;;11.55;10.35;;;;;;;5.02;66.29785;95777.23;;;;
2020/04/10 04:09:53;;;;;;;12;10.8;;;;;;;5.04;67.31641;95782.84;;;;
2020/04/10 04:13:55;;;;;;;12;10.8;;;;;;;5.04;67.31641;95782.84;;;;
2020/04/10 04:14:56;;;;;;;12;10.8;;;;;;;5.04;67.31641;95782.84;;;;
2020/04/10 04:15:56;;;;;;;12;10.8;;;;;;;5.04;67.31641;95782.84;;;;
2020/04/10 04:17:02;;;;;;;12;10.8;;;;;;;5.04;67.31641;95782.84;;;;
2020/04/10 04:18:18;;;;;;;12;10.8;;;;;;;5.04;67.31641;95782.84;;;;
2020/04/10 04:19:21;;;;;;;12;10.8;;;;;;;5.04;67.31641;95782.84;;;;
2020/04/10 04:20:22;;;;;;;12.75;10.85;;;;;;;4.89;66.61621;95781.13;;;;
2020/04/10 04:21:22;;;;;;;12.75;10.85;;;;;;;4.89;66.61621;95781.13;;;;
2020/04/10 04:22:25;;;;;;;12.75;10.85;;;;;;;4.89;66.61621;95781.13;;;;
2020/04/10 04:23:27;;;;;;;12.5;11.15;;;;;;;4.91;67.63672;95785.79;;;;
2020/04/10 04:24:32;;;;;;;12.5;11.15;;;;;;;4.91;67.63672;95785.79;;;;
2020/04/10 04:25:33;;;;;;;12.5;11.15;;;;;;;4.91;67.63672;95785.79;;;;
2020/04/10 04:26:34;;;;;;;12.5;11.15;;;;;;;4.91;67.63672;95785.79;;;;
2020/04/10 04:27:35;;;;;;;12.5;11.15;;;;;;;4.91;67.63672;95785.79;;;;
2020/04/10 04:28:35;;;;;;;12.5;11.15;;;;;;;4.91;67.63672;95785.79;;;;
2020/04/10 04:29:36;;;;;;;12.5;11.15;;;;;;;4.91;67.63672;95785.79;;;;
2020/04/10 04:30:37;;;;;;;12.5;11.15;;;;;;;4.91;67.63672;95785.79;;;;
2020/04/10 04:31:39;;;;;;;12.5;11.15;;;;;;;4.91;67.63672;95785.79;;;;
2020/04/10 04:32:42;;;;;;;12.5;11.15;;;;;;;4.91;67.63672;95785.79;;;;
2020/04/10 04:33:43;;;;;;;12.4;11.05;;;;;;;4.78;66.84375;95790.87;;;;
2020/04/10 04:34:43;;;;;;;12.4;11.05;;;;;;;4.78;66.84375;95790.87;;;;
2020/04/10 04:35:44;;;;;;;12.4;11.05;;;;;;;4.78;66.84375;95790.87;;;;
2020/04/10 04:36:44;;;;;;;17.4;11.05;;;;;;;4.81;67.92676;95789.25;;;;
2020/04/10 04:37:45;;;;;;;17.4;11.05;;;;;;;4.81;67.92676;95789.25;;;;
2020/04/10 04:38:46;;;;;;;17.4;11.05;;;;;;;4.81;67.92676;95789.25;;;;
2020/04/10 04:39:46;;;;;;;17.4;11.05;;;;;;;4.81;67.92676;95789.25;;;;
2020/04/10 04:40:46;;;;;;;17.4;11.05;;;;;;;4.81;67.92676;95789.25;;;;
2020/04/10 04:41:47;;;;;;;17.4;11.05;;;;;;;4.81;67.92676;95789.25;;;;
2020/04/10 04:42:47;;;;;;;17.4;11.05;;;;;;;4.81;67.92676;95789.25;;;;
2020/04/10 04:43:48;;;;;;;17.4;11.05;;;;;;;4.81;67.92676;95789.25;;;;
2020/04/10 04:44:49;;;;;;;17.4;11.05;;;;;;;4.81;67.92676;95789.25;;;;
2020/04/10 04:45:49;;;;;;;17.4;11.05;;;;;;;4.81;67.92676;95789.25;;;;
2020/04/10 04:46:50;;;;;;;17.4;11.05;;;;;;;4.81;67.92676;95789.25;;;;
2020/04/10 04:47:51;;;;;;;17.4;11.05;;;;;;;4.81;67.92676;95789.25;;;;
2020/04/10 04:48:52;;;;;;;17.4;11.05;;;;;;;4.81;67.92676;95789.25;;;;
2020/04/10 04:49:52;;;;;;;17.4;11.05;;;;;;;4.81;67.92676;95789.25;;;;
2020/04/10 04:50:53;;;;;;;17.4;11.05;;;;;;;4.81;67.92676;95789.25;;;;
2020/04/10 04:51:53;;;;;;;17.4;11.05;;;;;;;4.81;67.92676;95789.25;;;;
2020/04/10 04:52:53;;;;;;;17.4;11.05;;;;;;;4.81;67.92676;95789.25;;;;
2020/04/10 04:53:55;;;;;;;17.4;11.05;;;;;;;4.81;67.92676;95789.25;;;;
2020/04/10 04:54:55;;;;;;;17.4;11.05;;;;;;;4.81;67.92676;95789.25;;;;
2020/04/10 04:55:56;;;;;;;17.4;11.05;;;;;;;4.81;67.92676;95789.25;;;;
2020/04/10 04:56:57;;;;;;;17.4;11.05;;;;;;;4.81;67.92676;95789.25;;;;
2020/04/10 04:57:57;;;;;;;17.4;11.05;;;;;;;4.81;67.92676;95789.25;;;;
2020/04/10 04:58:58;;;;;;;17.4;11.05;;;;;;;4.81;67.92676;95789.25;;;;
2020/04/10 04:59:58;;;;;;;17.4;11.05;;;;;;;4.81;67.92676;95789.25;;;;
2020/04/10 05:00:58;;;;;;;17.4;11.05;;;;;;;4.81;67.92676;95789.25;;;;
2020/04/10 05:01:59;;;;;;;17.4;11.05;;;;;;;4.81;67.92676;95789.25;;;;
2020/04/10 05:03:00;;;;;;;17.4;11.05;;;;;;;4.81;67.92676;95789.25;;;;
2020/04/10 05:04:00;;;;;;;17.4;11.05;;;;;;;4.81;67.92676;95789.25;;;;
2020/04/10 05:05:00;;;;;;;17.4;11.05;;;;;;;4.81;67.92676;95789.25;;;;
2020/04/10 05:06:01;;;;;;;17.4;11.05;;;;;;;4.81;67.92676;95789.25;;;;
2020/04/10 05:07:01;;;;;;;17.4;11.05;;;;;;;4.81;67.92676;95789.25;;;;
2020/04/10 05:08:02;;;;;;;17.4;11.05;;;;;;;4.81;67.92676;95789.25;;;;
2020/04/10 05:09:03;;;;;;;12.55;10.65;;;;;;;4.93;66.89844;95812.23;;;;
2020/04/10 05:10:03;;;;;;;12.55;10.65;;;;;;;4.93;66.89844;95812.23;;;;
2020/04/10 05:11:08;;;;;;;12.55;10.65;;;;;;;4.93;66.89844;95812.23;;;;
2020/04/10 05:12:08;;;;;;;12.55;10.65;;;;;;;4.93;66.89844;95812.23;;;;
2020/04/10 05:13:10;;;;;;;12.55;10.65;;;;;;;4.93;66.89844;95812.23;;;;
2020/04/10 05:14:10;;;;;;;12.55;10.65;;;;;;;4.93;66.89844;95812.23;;;;
2020/04/10 05:15:11;;;;;;;12.55;10.65;;;;;;;4.93;66.89844;95812.23;;;;
2020/04/10 05:16:11;;;;;;;12.55;10.65;;;;;;;4.93;66.89844;95812.23;;;;
2020/04/10 05:17:12;;;;;;;12.55;10.65;;;;;;;4.93;66.89844;95812.23;;;;
2020/04/10 05:18:12;;;;;;;12.55;10.65;;;;;;;4.93;66.89844;95812.23;;;;
2020/04/10 05:19:13;;;;;;;12.55;10.65;;;;;;;4.93;66.89844;95812.23;;;;
2020/04/10 05:20:13;;;;;;;13.35;10.8;;;;;;;5.12;66.53418;95816.16;;;;
2020/04/10 05:21:14;;;;;;;13.35;10.8;;;;;;;5.12;66.53418;95816.16;;;;
2020/04/10 05:22:14;;;;;;;13.35;10.8;;;;;;;5.12;66.53418;95816.16;;;;
2020/04/10 05:23:15;;;;;;;13.35;10.8;;;;;;;5.12;66.53418;95816.16;;;;
2020/04/10 05:24:15;;;;;;;13.35;10.8;;;;;;;5.12;66.53418;95816.16;;;;
2020/04/10 05:25:16;;;;;;;13.35;10.8;;;;;;;5.12;66.53418;95816.16;;;;
2020/04/10 05:26:17;;;;;;;13.35;10.8;;;;;;;5.12;66.53418;95816.16;;;;
2020/04/10 05:27:17;;;;;;;13.35;10.8;;;;;;;5.12;66.53418;95816.16;;;;
2020/04/10 05:28:20;;;;;;;13.35;10.8;;;;;;;5.12;66.53418;95816.16;;;;
2020/04/10 05:29:23;;;;;;;13.35;10.8;;;;;;;5.12;66.53418;95816.16;;;;
2020/04/10 05:30:25;;;;;;;14.9;11;;;;;;;5.34;66.22168;95838.34;;;;
2020/04/10 05:31:26;;;;;;;14.9;11;;;;;;;5.34;66.22168;95838.34;;;;
2020/04/10 05:32:26;;;;;;;14.9;11;;;;;;;5.34;66.22168;95838.34;;;;
2020/04/10 05:33:27;;;;;;;12.9;11.25;;;;;;;5.48;67.28027;95834.78;;;;
2020/04/10 05:34:28;;;;;;;12.9;11.25;;;;;;;5.48;67.28027;95834.78;;;;
2020/04/10 05:35:28;;;;;;;12.9;11.25;;;;;;;5.48;67.28027;95834.78;;;;
2020/04/10 05:36:29;;;;;;;12.9;11.25;;;;;;;5.48;67.28027;95834.78;;;;
2020/04/10 05:37:29;;;;;;;12.9;11.25;;;;;;;5.48;67.28027;95834.78;;;;
2020/04/10 05:38:30;;;;;;;12.9;11.25;;;;;;;5.48;67.28027;95834.78;;;;
2020/04/10 05:39:31;;;;;;;12.9;11.25;;;;;;;5.48;67.28027;95834.78;;;;
2020/04/10 05:40:31;;;;;;;12.9;11.25;;;;;;;5.48;67.28027;95834.78;;;;
2020/04/10 05:41:32;;;;;;;12.9;11.25;;;;;;;5.48;67.28027;95834.78;;;;
2020/04/10 05:42:32;;;;;;;12.9;11.25;;;;;;;5.48;67.28027;95834.78;;;;
2020/04/10 05:43:34;;;;;;;11.85;10.45;;;;;;;5.9;66.35938;95837.03;;;;
2020/04/10 05:44:34;;;;;;;11.85;10.45;;;;;;;5.9;66.35938;95837.03;;;;
2020/04/10 05:45:35;;;;;;;11.85;10.45;;;;;;;5.9;66.35938;95837.03;;;;
2020/04/10 05:46:36;;;;;;;12.35;11.05;;;;;;;6.09;67.36523;95839.06;;;;
2020/04/10 05:47:37;;;;;;;12.35;11.05;;;;;;;6.09;67.36523;95839.06;;;;
2020/04/10 05:48:39;;;;;;;12.35;11.05;;;;;;;6.09;67.36523;95839.06;;;;
2020/04/10 05:49:39;;;;;;;12.35;11.05;;;;;;;6.09;67.36523;95839.06;;;;
2020/04/10 05:50:42;;;;;;;12.35;11.05;;;;;;;6.09;67.36523;95839.06;;;;
2020/04/10 05:52:17;;;;;;;12.35;11.05;;;;;;;6.09;67.36523;95839.06;;;;
2020/04/10 05:53:20;;;;;;;12.35;11.05;;;;;;;6.09;67.36523;95839.06;;;;
2020/04/10 05:54:23;;;;;;;12.35;11.05;;;;;;;6.09;67.36523;95839.06;;;;
2020/04/10 05:55:24;;;;;;;12.35;11.05;;;;;;;6.09;67.36523;95839.06;;;;
2020/04/10 05:56:25;;;;;;;12.35;11.05;;;;;;;6.09;67.36523;95839.06;;;;
2020/04/10 05:57:25;;;;;;;11.55;10.3;;;;;;;6.73;66.05078;95843.18;;;;
2020/04/10 05:58:26;;;;;;;11.55;10.3;;;;;;;6.73;66.05078;95843.18;;;;
2020/04/10 05:59:26;;;;;;;12.15;10.95;;;;;;;6.96;66.95801;95843.28;;;;
2020/04/10 06:00:29;;;;;;;12.15;10.95;;;;;;;6.96;66.95801;95843.28;;;;
2020/04/10 06:01:34;;;;;;;12.15;10.95;;;;;;;6.96;66.95801;95843.28;;;;
2020/04/10 06:02:34;;;;;;;12.15;10.95;;;;;;;6.96;66.95801;95843.28;;;;
2020/04/10 06:03:35;;;;;;;12.15;10.95;;;;;;;6.96;66.95801;95843.28;;;;
2020/04/10 06:04:36;;;;;;;12.15;10.95;;;;;;;6.96;66.95801;95843.28;;;;
2020/04/10 06:05:36;;;;;;;12.15;10.95;;;;;;;6.96;66.95801;95843.28;;;;
2020/04/10 06:06:37;;;;;;;12.15;10.95;;;;;;;6.96;66.95801;95843.28;;;;
2020/04/10 06:07:37;;;;;;;12.15;10.95;;;;;;;6.96;66.95801;95843.28;;;;
2020/04/10 06:08:38;;;;;;;12.15;10.95;;;;;;;6.96;66.95801;95843.28;;;;
2020/04/10 06:09:38;;;;;;;12.15;10.95;;;;;;;6.96;66.95801;95843.28;;;;
2020/04/10 06:10:40;;;;;;;11.45;9.650002;;;;;;;7.7;65.51758;95852.61;;;;
2020/04/10 06:11:42;;;;;;;11.45;9.650002;;;;;;;7.7;65.51758;95852.61;;;;
2020/04/10 06:12:43;;;;;;;10.65;9.550001;;;;;;;7.95;65.91895;95852.33;;;;
2020/04/10 06:13:43;;;;;;;10.65;9.550001;;;;;;;7.95;65.91895;95852.33;;;;
2020/04/10 06:14:44;;;;;;;10.65;9.550001;;;;;;;7.95;65.91895;95852.33;;;;
2020/04/10 06:15:46;;;;;;;10.65;9.550001;;;;;;;7.95;65.91895;95852.33;;;;
2020/04/10 06:16:46;;;;;;;10.65;9.550001;;;;;;;7.95;65.91895;95852.33;;;;
2020/04/10 06:17:47;;;;;;;10.65;9.550001;;;;;;;7.95;65.91895;95852.33;;;;
2020/04/10 06:18:48;;;;;;;10.65;9.550001;;;;;;;7.95;65.91895;95852.33;;;;
2020/04/10 06:19:49;;;;;;;10.65;9.550001;;;;;;;7.95;65.91895;95852.33;;;;
2020/04/10 06:20:49;;;;;;;10.65;9.550001;;;;;;;7.95;65.91895;95852.33;;;;
2020/04/10 06:21:50;;;;;;;10.65;9.550001;;;;;;;7.95;65.91895;95852.33;;;;
2020/04/10 06:22:51;;;;;;;10.65;9.550001;;;;;;;7.95;65.91895;95852.33;;;;
2020/04/10 06:23:52;;;;;;;10.75;9.65;;;;;;;8.79;64.11035;95857.89;;;;
2020/04/10 06:24:52;;;;;;;10.75;9.65;;;;;;;8.79;64.11035;95857.89;;;;
2020/04/10 06:25:53;;;;;;;10.75;9.65;;;;;;;8.79;64.11035;95857.89;;;;
2020/04/10 06:26:53;;;;;;;10.45;9.4;;;;;;;9.11;64.16797;95860.08;;;;
2020/04/10 06:27:54;;;;;;;10.45;9.4;;;;;;;9.11;64.16797;95860.08;;;;
2020/04/10 06:28:55;;;;;;;10.45;9.4;;;;;;;9.11;64.16797;95860.08;;;;
2020/04/10 06:29:55;;;;;;;10.45;9.4;;;;;;;9.11;64.16797;95860.08;;;;
2020/04/10 06:30:55;;;;;;;10.45;9.4;;;;;;;9.11;64.16797;95860.08;;;;
2020/04/10 06:31:56;;;;;;;10.45;9.4;;;;;;;9.11;64.16797;95860.08;;;;
2020/04/10 06:32:56;;;;;;;10.45;9.4;;;;;;;9.11;64.16797;95860.08;;;;
2020/04/10 06:33:57;;;;;;;10.45;9.4;;;;;;;9.11;64.16797;95860.08;;;;
2020/04/10 06:34:58;;;;;;;10.45;9.4;;;;;;;9.11;64.16797;95860.08;;;;
2020/04/10 06:35:58;;;;;;;10.45;9.4;;;;;;;9.11;64.16797;95860.08;;;;
2020/04/10 06:36:58;;;;;;;10.45;9;;;;;;;10.86;61.01074;95860.88;;;;
2020/04/10 06:37:59;;;;;;;10.45;9;;;;;;;10.86;61.01074;95860.88;;;;
2020/04/10 06:39:00;;;;;;;10.45;9;;;;;;;10.86;61.01074;95860.88;;;;
2020/04/10 06:40:07;;;;;;;10.45;9.4;;;;;;;11.44;60.10059;95859.07;;;;
2020/04/10 06:41:12;;;;;;;10.45;9.4;;;;;;;11.44;60.10059;95859.07;;;;
2020/04/10 06:42:13;;;;;;;10.9;9.75;;;;;;;12.06;58.87988;95861.36;;;;
2020/04/10 06:43:13;;;;;;;10.9;9.75;;;;;;;12.06;58.87988;95861.36;;;;
2020/04/10 06:44:14;;;;;;;10.9;9.75;;;;;;;12.06;58.87988;95861.36;;;;
2020/04/10 06:45:14;;;;;;;10.65;9.549999;;;;;;;12.65;57.59863;95858.52;;;;
2020/04/10 06:46:16;;;;;;;10.65;9.549999;;;;;;;12.65;57.59863;95858.52;;;;
2020/04/10 06:47:17;;;;;;;10.65;9.549999;;;;;;;12.65;57.59863;95858.52;;;;
2020/04/10 06:48:18;;;;;;;10.65;9.549999;;;;;;;12.65;57.59863;95858.52;;;;
2020/04/10 06:49:19;;;;;;;10.65;9.549999;;;;;;;12.65;57.59863;95858.52;;;;
2020/04/10 06:50:19;;;;;;;10.65;9.549999;;;;;;;12.65;57.59863;95858.52;;;;
2020/04/10 06:51:21;;;;;;;10.65;9.549999;;;;;;;12.65;57.59863;95858.52;;;;
2020/04/10 06:52:21;;;;;;;10.65;9.549999;;;;;;;12.65;57.59863;95858.52;;;;